sensor_id;sensor_type;location;lat;lon;timestamp;P1;durP1;ratioP1;P2;durP2;ratioP2
32196;SDS011;18697;42.770;23.400;2024-02-26T00:00:32;25.15;;;14.65;;
32196;SDS011;18697;42.770;23.400;2024-02-26T00:02:59;26.95;;;15.50;;
32196;SDS011;18697;42.770;23.400;2024-02-26T00:05:25;23.88;;;14.98;;
32196;SDS011;18697;42.770;23.400;2024-02-26T00:07:50;27.38;;;16.27;;
32196;SDS011;18697;42.770;23.400;2024-02-26T00:10:16;30.15;;;17.92;;
32196;SDS011;18697;42.770;23.400;2024-02-26T00:12:41;26.02;;;16.90;;
32196;SDS011;18697;42.770;23.400;2024-02-26T00:15:07;28.33;;;16.75;;
32196;SDS011;18697;42.770;23.400;2024-02-26T00:17:33;28.90;;;18.80;;
32196;SDS011;18697;42.770;23.400;2024-02-26T00:19:58;25.90;;;18.50;;
32196;SDS011;18697;42.770;23.400;2024-02-26T00:22:25;32.63;;;21.17;;
32196;SDS011;18697;42.770;23.400;2024-02-26T00:24:51;31.52;;;19.75;;
32196;SDS011;18697;42.770;23.400;2024-02-26T00:27:16;29.25;;;19.25;;
32196;SDS011;18697;42.770;23.400;2024-02-26T00:29:41;29.52;;;20.05;;
32196;SDS011;18697;42.770;23.400;2024-02-26T00:32:07;36.50;;;20.95;;
32196;SDS011;18697;42.770;23.400;2024-02-26T00:34:32;33.72;;;19.65;;
32196;SDS011;18697;42.770;23.400;2024-02-26T00:36:58;31.88;;;19.95;;
32196;SDS011;18697;42.770;23.400;2024-02-26T00:39:23;38.13;;;19.65;;
32196;SDS011;18697;42.770;23.400;2024-02-26T00:41:48;33.67;;;20.45;;
32196;SDS011;18697;42.770;23.400;2024-02-26T00:44:14;28.35;;;18.23;;
32196;SDS011;18697;42.770;23.400;2024-02-26T00:46:39;31.27;;;19.40;;
32196;SDS011;18697;42.770;23.400;2024-02-26T00:49:04;33.20;;;19.73;;
32196;SDS011;18697;42.770;23.400;2024-02-26T00:51:30;37.42;;;21.70;;
32196;SDS011;18697;42.770;23.400;2024-02-26T00:53:56;40.58;;;22.83;;
32196;SDS011;18697;42.770;23.400;2024-02-26T00:56:21;40.78;;;22.25;;
32196;SDS011;18697;42.770;23.400;2024-02-26T00:58:47;40.53;;;21.85;;
32196;SDS011;18697;42.770;23.400;2024-02-26T01:01:12;35.40;;;21.60;;
32196;SDS011;18697;42.770;23.400;2024-02-26T01:03:37;38.08;;;22.88;;
32196;SDS011;18697;42.770;23.400;2024-02-26T01:06:03;37.70;;;21.83;;
32196;SDS011;18697;42.770;23.400;2024-02-26T01:08:28;36.58;;;22.02;;
32196;SDS011;18697;42.770;23.400;2024-02-26T01:10:54;39.75;;;21.70;;
32196;SDS011;18697;42.770;23.400;2024-02-26T01:13:19;35.17;;;22.00;;
32196;SDS011;18697;42.770;23.400;2024-02-26T01:15:45;38.53;;;21.83;;
32196;SDS011;18697;42.770;23.400;2024-02-26T01:18:10;40.67;;;22.27;;
32196;SDS011;18697;42.770;23.400;2024-02-26T01:20:35;34.67;;;20.88;;
32196;SDS011;18697;42.770;23.400;2024-02-26T01:23:01;36.10;;;21.80;;
32196;SDS011;18697;42.770;23.400;2024-02-26T01:25:27;32.05;;;20.35;;
32196;SDS011;18697;42.770;23.400;2024-02-26T01:27:52;39.05;;;22.10;;
32196;SDS011;18697;42.770;23.400;2024-02-26T01:30:18;34.88;;;21.85;;
32196;SDS011;18697;42.770;23.400;2024-02-26T01:32:43;40.63;;;22.95;;
32196;SDS011;18697;42.770;23.400;2024-02-26T01:35:09;36.22;;;21.10;;
32196;SDS011;18697;42.770;23.400;2024-02-26T01:37:36;35.28;;;19.30;;
32196;SDS011;18697;42.770;23.400;2024-02-26T01:40:02;32.72;;;19.63;;
32196;SDS011;18697;42.770;23.400;2024-02-26T01:42:32;39.28;;;21.00;;
32196;SDS011;18697;42.770;23.400;2024-02-26T01:44:58;33.90;;;19.83;;
32196;SDS011;18697;42.770;23.400;2024-02-26T01:47:23;32.17;;;19.05;;
32196;SDS011;18697;42.770;23.400;2024-02-26T01:49:50;32.10;;;18.55;;
32196;SDS011;18697;42.770;23.400;2024-02-26T01:52:15;35.83;;;23.23;;
32196;SDS011;18697;42.770;23.400;2024-02-26T01:54:42;45.15;;;24.23;;
32196;SDS011;18697;42.770;23.400;2024-02-26T01:57:10;39.47;;;24.00;;
32196;SDS011;18697;42.770;23.400;2024-02-26T01:59:37;44.08;;;25.08;;
32196;SDS011;18697;42.770;23.400;2024-02-26T02:02:05;43.28;;;24.48;;
32196;SDS011;18697;42.770;23.400;2024-02-26T02:04:33;38.28;;;23.05;;
32196;SDS011;18697;42.770;23.400;2024-02-26T02:07:00;40.78;;;24.27;;
32196;SDS011;18697;42.770;23.400;2024-02-26T02:09:27;36.70;;;21.20;;
32196;SDS011;18697;42.770;23.400;2024-02-26T02:11:53;37.53;;;23.60;;
32196;SDS011;18697;42.770;23.400;2024-02-26T02:14:19;48.42;;;25.38;;
32196;SDS011;18697;42.770;23.400;2024-02-26T02:16:44;48.25;;;26.45;;
32196;SDS011;18697;42.770;23.400;2024-02-26T02:19:10;46.03;;;23.95;;
32196;SDS011;18697;42.770;23.400;2024-02-26T02:21:36;39.03;;;22.20;;
32196;SDS011;18697;42.770;23.400;2024-02-26T02:24:01;39.40;;;21.75;;
32196;SDS011;18697;42.770;23.400;2024-02-26T02:26:27;36.75;;;21.73;;
32196;SDS011;18697;42.770;23.400;2024-02-26T02:28:52;33.88;;;21.15;;
32196;SDS011;18697;42.770;23.400;2024-02-26T02:31:18;33.78;;;20.33;;
32196;SDS011;18697;42.770;23.400;2024-02-26T02:33:44;37.15;;;21.08;;
32196;SDS011;18697;42.770;23.400;2024-02-26T02:36:09;35.90;;;21.23;;
32196;SDS011;18697;42.770;23.400;2024-02-26T02:38:36;34.50;;;21.48;;
32196;SDS011;18697;42.770;23.400;2024-02-26T02:41:02;37.58;;;21.98;;
32196;SDS011;18697;42.770;23.400;2024-02-26T02:43:27;35.20;;;21.20;;
32196;SDS011;18697;42.770;23.400;2024-02-26T02:45:53;33.08;;;20.85;;
32196;SDS011;18697;42.770;23.400;2024-02-26T02:48:18;35.25;;;21.40;;
32196;SDS011;18697;42.770;23.400;2024-02-26T02:50:44;39.22;;;22.17;;
32196;SDS011;18697;42.770;23.400;2024-02-26T02:53:09;33.85;;;21.25;;
32196;SDS011;18697;42.770;23.400;2024-02-26T02:55:35;33.78;;;20.95;;
32196;SDS011;18697;42.770;23.400;2024-02-26T02:58:00;31.50;;;20.23;;
32196;SDS011;18697;42.770;23.400;2024-02-26T03:00:26;31.42;;;20.23;;
32196;SDS011;18697;42.770;23.400;2024-02-26T03:02:51;34.45;;;20.17;;
32196;SDS011;18697;42.770;23.400;2024-02-26T03:05:16;33.30;;;20.70;;
32196;SDS011;18697;42.770;23.400;2024-02-26T03:07:42;34.33;;;20.67;;
32196;SDS011;18697;42.770;23.400;2024-02-26T03:10:07;34.70;;;20.65;;
32196;SDS011;18697;42.770;23.400;2024-02-26T03:12:33;32.92;;;21.33;;
32196;SDS011;18697;42.770;23.400;2024-02-26T03:14:59;37.67;;;22.13;;
32196;SDS011;18697;42.770;23.400;2024-02-26T03:17:27;34.45;;;19.67;;
32196;SDS011;18697;42.770;23.400;2024-02-26T03:19:53;32.78;;;20.60;;
32196;SDS011;18697;42.770;23.400;2024-02-26T03:22:19;33.10;;;20.92;;
32196;SDS011;18697;42.770;23.400;2024-02-26T03:24:45;29.95;;;19.25;;
32196;SDS011;18697;42.770;23.400;2024-02-26T03:27:10;33.25;;;19.05;;
32196;SDS011;18697;42.770;23.400;2024-02-26T03:29:37;37.60;;;20.48;;
32196;SDS011;18697;42.770;23.400;2024-02-26T03:32:03;81.72;;;30.45;;
32196;SDS011;18697;42.770;23.400;2024-02-26T03:34:29;105.45;;;37.45;;
32196;SDS011;18697;42.770;23.400;2024-02-26T03:36:55;82.32;;;33.50;;
32196;SDS011;18697;42.770;23.400;2024-02-26T03:39:21;34.95;;;20.65;;
32196;SDS011;18697;42.770;23.400;2024-02-26T03:41:47;33.88;;;18.60;;
32196;SDS011;18697;42.770;23.400;2024-02-26T03:44:13;28.40;;;18.98;;
32196;SDS011;18697;42.770;23.400;2024-02-26T03:46:38;31.95;;;19.98;;
32196;SDS011;18697;42.770;23.400;2024-02-26T03:49:04;29.40;;;19.55;;
32196;SDS011;18697;42.770;23.400;2024-02-26T03:51:29;32.35;;;18.17;;
32196;SDS011;18697;42.770;23.400;2024-02-26T03:53:56;42.15;;;23.60;;
32196;SDS011;18697;42.770;23.400;2024-02-26T03:56:23;45.35;;;22.38;;
32196;SDS011;18697;42.770;23.400;2024-02-26T03:58:48;36.15;;;20.20;;
32196;SDS011;18697;42.770;23.400;2024-02-26T04:01:14;32.25;;;19.73;;
32196;SDS011;18697;42.770;23.400;2024-02-26T04:03:39;36.53;;;20.58;;
32196;SDS011;18697;42.770;23.400;2024-02-26T04:06:04;37.42;;;20.75;;
32196;SDS011;18697;42.770;23.400;2024-02-26T04:08:33;44.33;;;24.90;;
32196;SDS011;18697;42.770;23.400;2024-02-26T04:10:59;45.60;;;24.95;;
32196;SDS011;18697;42.770;23.400;2024-02-26T04:13:24;35.85;;;20.88;;
32196;SDS011;18697;42.770;23.400;2024-02-26T04:15:50;36.25;;;21.15;;
32196;SDS011;18697;42.770;23.400;2024-02-26T04:18:16;35.25;;;21.67;;
32196;SDS011;18697;42.770;23.400;2024-02-26T04:20:41;37.05;;;21.30;;
32196;SDS011;18697;42.770;23.400;2024-02-26T04:23:07;50.30;;;26.05;;
32196;SDS011;18697;42.770;23.400;2024-02-26T04:25:32;63.13;;;34.03;;
32196;SDS011;18697;42.770;23.400;2024-02-26T04:27:58;113.57;;;56.63;;
32196;SDS011;18697;42.770;23.400;2024-02-26T04:30:23;67.72;;;33.60;;
32196;SDS011;18697;42.770;23.400;2024-02-26T04:32:49;59.40;;;31.95;;
32196;SDS011;18697;42.770;23.400;2024-02-26T04:35:14;39.72;;;22.52;;
32196;SDS011;18697;42.770;23.400;2024-02-26T04:37:39;39.38;;;22.05;;
32196;SDS011;18697;42.770;23.400;2024-02-26T04:40:05;29.00;;;19.08;;
32196;SDS011;18697;42.770;23.400;2024-02-26T04:42:31;31.38;;;18.05;;
32196;SDS011;18697;42.770;23.400;2024-02-26T04:44:56;27.58;;;16.35;;
32196;SDS011;18697;42.770;23.400;2024-02-26T04:47:22;22.15;;;12.85;;
32196;SDS011;18697;42.770;23.400;2024-02-26T04:49:50;16.02;;;11.27;;
32196;SDS011;18697;42.770;23.400;2024-02-26T04:52:16;19.75;;;11.40;;
32196;SDS011;18697;42.770;23.400;2024-02-26T04:54:42;17.63;;;11.23;;
32196;SDS011;18697;42.770;23.400;2024-02-26T04:57:07;26.90;;;17.67;;
32196;SDS011;18697;42.770;23.400;2024-02-26T04:59:33;37.90;;;23.58;;
32196;SDS011;18697;42.770;23.400;2024-02-26T05:01:58;38.78;;;25.08;;
32196;SDS011;18697;42.770;23.400;2024-02-26T05:04:23;41.45;;;24.98;;
32196;SDS011;18697;42.770;23.400;2024-02-26T05:06:48;38.22;;;23.48;;
32196;SDS011;18697;42.770;23.400;2024-02-26T05:09:14;41.88;;;25.75;;
32196;SDS011;18697;42.770;23.400;2024-02-26T05:11:42;46.60;;;27.70;;
32196;SDS011;18697;42.770;23.400;2024-02-26T05:14:07;65.32;;;34.55;;
32196;SDS011;18697;42.770;23.400;2024-02-26T05:16:33;55.67;;;30.45;;
32196;SDS011;18697;42.770;23.400;2024-02-26T05:18:58;34.33;;;21.33;;
32196;SDS011;18697;42.770;23.400;2024-02-26T05:21:23;36.70;;;21.90;;
32196;SDS011;18697;42.770;23.400;2024-02-26T05:23:49;39.72;;;21.75;;
32196;SDS011;18697;42.770;23.400;2024-02-26T05:26:23;33.63;;;22.25;;
32196;SDS011;18697;42.770;23.400;2024-02-26T05:28:49;81.10;;;39.33;;
32196;SDS011;18697;42.770;23.400;2024-02-26T05:31:15;324.90;;;128.05;;
32196;SDS011;18697;42.770;23.400;2024-02-26T05:33:41;83.93;;;38.88;;
32196;SDS011;18697;42.770;23.400;2024-02-26T05:36:06;83.05;;;38.45;;
32196;SDS011;18697;42.770;23.400;2024-02-26T05:38:32;32.63;;;21.67;;
32196;SDS011;18697;42.770;23.400;2024-02-26T05:40:58;60.63;;;33.30;;
32196;SDS011;18697;42.770;23.400;2024-02-26T05:43:24;32.58;;;21.27;;
32196;SDS011;18697;42.770;23.400;2024-02-26T05:45:50;33.85;;;19.70;;
32196;SDS011;18697;42.770;23.400;2024-02-26T05:48:15;27.35;;;18.90;;
32196;SDS011;18697;42.770;23.400;2024-02-26T05:50:41;30.52;;;19.20;;
32196;SDS011;18697;42.770;23.400;2024-02-26T05:53:06;32.35;;;19.90;;
32196;SDS011;18697;42.770;23.400;2024-02-26T05:55:32;29.65;;;19.23;;
32196;SDS011;18697;42.770;23.400;2024-02-26T05:57:57;33.17;;;20.00;;
32196;SDS011;18697;42.770;23.400;2024-02-26T06:00:23;32.88;;;20.25;;
32196;SDS011;18697;42.770;23.400;2024-02-26T06:02:48;38.10;;;20.35;;
32196;SDS011;18697;42.770;23.400;2024-02-26T06:05:13;33.65;;;19.20;;
32196;SDS011;18697;42.770;23.400;2024-02-26T06:07:39;30.27;;;18.55;;
32196;SDS011;18697;42.770;23.400;2024-02-26T06:10:04;34.20;;;21.05;;
32196;SDS011;18697;42.770;23.400;2024-02-26T06:12:30;37.72;;;19.60;;
32196;SDS011;18697;42.770;23.400;2024-02-26T06:14:56;32.15;;;19.95;;
32196;SDS011;18697;42.770;23.400;2024-02-26T06:17:21;31.45;;;20.00;;
32196;SDS011;18697;42.770;23.400;2024-02-26T06:19:47;34.85;;;20.67;;
32196;SDS011;18697;42.770;23.400;2024-02-26T06:22:12;39.45;;;20.77;;
32196;SDS011;18697;42.770;23.400;2024-02-26T06:24:37;38.30;;;20.20;;
32196;SDS011;18697;42.770;23.400;2024-02-26T06:27:03;33.95;;;20.58;;
32196;SDS011;18697;42.770;23.400;2024-02-26T06:29:28;34.40;;;21.45;;
32196;SDS011;18697;42.770;23.400;2024-02-26T06:31:54;40.88;;;21.80;;
32196;SDS011;18697;42.770;23.400;2024-02-26T06:34:19;30.50;;;21.05;;
32196;SDS011;18697;42.770;23.400;2024-02-26T06:36:44;39.65;;;22.08;;
32196;SDS011;18697;42.770;23.400;2024-02-26T06:39:10;35.00;;;23.08;;
32196;SDS011;18697;42.770;23.400;2024-02-26T06:41:35;37.80;;;22.30;;
32196;SDS011;18697;42.770;23.400;2024-02-26T06:44:01;41.72;;;24.48;;
32196;SDS011;18697;42.770;23.400;2024-02-26T06:46:27;42.22;;;25.05;;
32196;SDS011;18697;42.770;23.400;2024-02-26T06:48:55;39.67;;;24.67;;
32196;SDS011;18697;42.770;23.400;2024-02-26T06:51:21;49.83;;;28.90;;
32196;SDS011;18697;42.770;23.400;2024-02-26T06:53:46;50.67;;;28.92;;
32196;SDS011;18697;42.770;23.400;2024-02-26T06:56:12;52.00;;;33.63;;
32196;SDS011;18697;42.770;23.400;2024-02-26T06:58:37;55.08;;;34.35;;
32196;SDS011;18697;42.770;23.400;2024-02-26T07:01:02;76.93;;;47.67;;
32196;SDS011;18697;42.770;23.400;2024-02-26T07:03:28;75.75;;;49.50;;
32196;SDS011;18697;42.770;23.400;2024-02-26T07:05:54;81.72;;;51.67;;
32196;SDS011;18697;42.770;23.400;2024-02-26T07:08:19;80.15;;;52.42;;
32196;SDS011;18697;42.770;23.400;2024-02-26T07:10:46;78.05;;;51.38;;
32196;SDS011;18697;42.770;23.400;2024-02-26T07:13:11;72.82;;;51.00;;
32196;SDS011;18697;42.770;23.400;2024-02-26T07:15:37;78.05;;;48.50;;
32196;SDS011;18697;42.770;23.400;2024-02-26T07:18:02;62.10;;;43.45;;
32196;SDS011;18697;42.770;23.400;2024-02-26T07:20:28;64.05;;;42.58;;
32196;SDS011;18697;42.770;23.400;2024-02-26T07:22:55;60.28;;;41.88;;
32196;SDS011;18697;42.770;23.400;2024-02-26T07:25:20;54.92;;;35.22;;
32196;SDS011;18697;42.770;23.400;2024-02-26T07:27:46;49.67;;;29.90;;
32196;SDS011;18697;42.770;23.400;2024-02-26T07:30:11;39.10;;;27.75;;
32196;SDS011;18697;42.770;23.400;2024-02-26T07:32:37;41.42;;;25.73;;
32196;SDS011;18697;42.770;23.400;2024-02-26T07:35:03;38.03;;;23.88;;
32196;SDS011;18697;42.770;23.400;2024-02-26T07:37:29;39.28;;;24.67;;
32196;SDS011;18697;42.770;23.400;2024-02-26T07:39:54;38.33;;;24.55;;
32196;SDS011;18697;42.770;23.400;2024-02-26T07:42:19;34.65;;;24.27;;
32196;SDS011;18697;42.770;23.400;2024-02-26T07:47:10;34.83;;;24.52;;
32196;SDS011;18697;42.770;23.400;2024-02-26T07:49:35;41.15;;;24.52;;
32196;SDS011;18697;42.770;23.400;2024-02-26T07:52:01;38.40;;;27.77;;
32196;SDS011;18697;42.770;23.400;2024-02-26T07:54:26;38.47;;;26.10;;
32196;SDS011;18697;42.770;23.400;2024-02-26T07:56:52;38.15;;;25.15;;
32196;SDS011;18697;42.770;23.400;2024-02-26T07:59:17;37.22;;;22.73;;
32196;SDS011;18697;42.770;23.400;2024-02-26T08:01:42;40.38;;;22.67;;
32196;SDS011;18697;42.770;23.400;2024-02-26T08:04:08;35.97;;;21.05;;
32196;SDS011;18697;42.770;23.400;2024-02-26T08:06:34;29.45;;;20.23;;
32196;SDS011;18697;42.770;23.400;2024-02-26T08:08:59;31.42;;;18.98;;
32196;SDS011;18697;42.770;23.400;2024-02-26T08:13:49;27.25;;;16.98;;
32196;SDS011;18697;42.770;23.400;2024-02-26T08:16:15;40.03;;;21.02;;
32196;SDS011;18697;42.770;23.400;2024-02-26T08:18:40;40.42;;;25.08;;
32196;SDS011;18697;42.770;23.400;2024-02-26T08:21:06;34.08;;;20.92;;
32196;SDS011;18697;42.770;23.400;2024-02-26T08:25:56;31.90;;;18.10;;
32196;SDS011;18697;42.770;23.400;2024-02-26T08:28:22;406.60;;;123.55;;
32196;SDS011;18697;42.770;23.400;2024-02-26T08:30:48;220.73;;;70.82;;
32196;SDS011;18697;42.770;23.400;2024-02-26T08:33:13;278.15;;;99.90;;
32196;SDS011;18697;42.770;23.400;2024-02-26T08:35:39;43.80;;;22.20;;
32196;SDS011;18697;42.770;23.400;2024-02-26T08:38:04;45.15;;;25.95;;
32196;SDS011;18697;42.770;23.400;2024-02-26T08:40:29;27.17;;;17.40;;
32196;SDS011;18697;42.770;23.400;2024-02-26T08:42:55;27.45;;;16.92;;
32196;SDS011;18697;42.770;23.400;2024-02-26T08:45:20;35.28;;;20.02;;
32196;SDS011;18697;42.770;23.400;2024-02-26T08:47:46;29.90;;;17.30;;
32196;SDS011;18697;42.770;23.400;2024-02-26T08:50:11;179.43;;;54.30;;
32196;SDS011;18697;42.770;23.400;2024-02-26T08:52:39;69.90;;;26.92;;
32196;SDS011;18697;42.770;23.400;2024-02-26T08:55:05;29.33;;;18.10;;
32196;SDS011;18697;42.770;23.400;2024-02-26T08:57:33;27.58;;;16.48;;
32196;SDS011;18697;42.770;23.400;2024-02-26T08:59:59;24.20;;;14.23;;
32196;SDS011;18697;42.770;23.400;2024-02-26T09:02:25;24.40;;;13.95;;
32196;SDS011;18697;42.770;23.400;2024-02-26T09:04:53;18.92;;;12.40;;
32196;SDS011;18697;42.770;23.400;2024-02-26T09:07:20;18.27;;;11.35;;
32196;SDS011;18697;42.770;23.400;2024-02-26T09:09:49;18.48;;;12.45;;
32196;SDS011;18697;42.770;23.400;2024-02-26T09:12:14;21.13;;;11.98;;
32196;SDS011;18697;42.770;23.400;2024-02-26T09:14:40;18.35;;;13.23;;
32196;SDS011;18697;42.770;23.400;2024-02-26T09:17:05;20.38;;;12.57;;
32196;SDS011;18697;42.770;23.400;2024-02-26T09:19:32;18.50;;;12.30;;
32196;SDS011;18697;42.770;23.400;2024-02-26T09:21:58;20.67;;;12.02;;
32196;SDS011;18697;42.770;23.400;2024-02-26T09:24:23;18.00;;;11.73;;
32196;SDS011;18697;42.770;23.400;2024-02-26T09:26:49;17.20;;;10.70;;
32196;SDS011;18697;42.770;23.400;2024-02-26T09:29:14;16.02;;;10.43;;
32196;SDS011;18697;42.770;23.400;2024-02-26T09:31:40;15.55;;;9.60;;
32196;SDS011;18697;42.770;23.400;2024-02-26T09:34:06;14.00;;;9.98;;
32196;SDS011;18697;42.770;23.400;2024-02-26T09:36:34;17.25;;;10.52;;
32196;SDS011;18697;42.770;23.400;2024-02-26T09:39:00;16.05;;;10.00;;
32196;SDS011;18697;42.770;23.400;2024-02-26T09:43:53;15.93;;;9.55;;
32196;SDS011;18697;42.770;23.400;2024-02-26T09:46:22;11.80;;;8.43;;
32196;SDS011;18697;42.770;23.400;2024-02-26T09:48:48;13.90;;;9.05;;
32196;SDS011;18697;42.770;23.400;2024-02-26T09:51:14;16.52;;;9.70;;
32196;SDS011;18697;42.770;23.400;2024-02-26T09:53:42;14.50;;;10.25;;
32196;SDS011;18697;42.770;23.400;2024-02-26T09:56:10;12.93;;;9.55;;
32196;SDS011;18697;42.770;23.400;2024-02-26T09:58:38;14.65;;;7.35;;
32196;SDS011;18697;42.770;23.400;2024-02-26T10:01:04;15.73;;;6.60;;
32196;SDS011;18697;42.770;23.400;2024-02-26T10:03:37;11.13;;;6.50;;
32196;SDS011;18697;42.770;23.400;2024-02-26T10:06:05;13.48;;;5.82;;
32196;SDS011;18697;42.770;23.400;2024-02-26T10:08:32;8.60;;;4.72;;
32196;SDS011;18697;42.770;23.400;2024-02-26T10:10:58;12.95;;;6.10;;
32196;SDS011;18697;42.770;23.400;2024-02-26T10:13:24;8.38;;;4.60;;
32196;SDS011;18697;42.770;23.400;2024-02-26T10:15:50;8.85;;;5.57;;
32196;SDS011;18697;42.770;23.400;2024-02-26T10:18:15;7.53;;;5.45;;
32196;SDS011;18697;42.770;23.400;2024-02-26T10:20:41;13.75;;;5.38;;
32196;SDS011;18697;42.770;23.400;2024-02-26T10:23:06;12.48;;;6.22;;
32196;SDS011;18697;42.770;23.400;2024-02-26T10:25:32;11.80;;;6.20;;
32196;SDS011;18697;42.770;23.400;2024-02-26T10:28:00;11.07;;;7.28;;
32196;SDS011;18697;42.770;23.400;2024-02-26T10:30:30;12.63;;;7.15;;
32196;SDS011;18697;42.770;23.400;2024-02-26T10:32:55;7.88;;;5.63;;
32196;SDS011;18697;42.770;23.400;2024-02-26T10:35:22;10.88;;;6.15;;
32196;SDS011;18697;42.770;23.400;2024-02-26T10:37:49;15.20;;;7.93;;
32196;SDS011;18697;42.770;23.400;2024-02-26T10:40:15;13.68;;;8.23;;
32196;SDS011;18697;42.770;23.400;2024-02-26T10:42:41;15.68;;;9.82;;
32196;SDS011;18697;42.770;23.400;2024-02-26T10:45:08;19.55;;;9.10;;
32196;SDS011;18697;42.770;23.400;2024-02-26T10:47:35;15.27;;;8.27;;
32196;SDS011;18697;42.770;23.400;2024-02-26T10:50:01;16.70;;;9.05;;
32196;SDS011;18697;42.770;23.400;2024-02-26T10:52:31;14.27;;;8.52;;
32196;SDS011;18697;42.770;23.400;2024-02-26T10:54:59;9.77;;;6.72;;
32196;SDS011;18697;42.770;23.400;2024-02-26T10:57:33;13.05;;;7.53;;
32196;SDS011;18697;42.770;23.400;2024-02-26T11:00:00;7.75;;;6.22;;
32196;SDS011;18697;42.770;23.400;2024-02-26T11:02:29;10.95;;;6.72;;
32196;SDS011;18697;42.770;23.400;2024-02-26T11:04:57;6.95;;;5.82;;
32196;SDS011;18697;42.770;23.400;2024-02-26T11:07:24;11.38;;;6.25;;
32196;SDS011;18697;42.770;23.400;2024-02-26T11:09:50;12.15;;;6.88;;
32196;SDS011;18697;42.770;23.400;2024-02-26T11:12:17;8.27;;;6.93;;
32196;SDS011;18697;42.770;23.400;2024-02-26T11:14:44;10.77;;;6.03;;
32196;SDS011;18697;42.770;23.400;2024-02-26T11:17:11;10.45;;;7.50;;
32196;SDS011;18697;42.770;23.400;2024-02-26T11:19:38;9.15;;;5.78;;
32196;SDS011;18697;42.770;23.400;2024-02-26T11:22:06;6.57;;;5.63;;
32196;SDS011;18697;42.770;23.400;2024-02-26T11:24:32;14.63;;;6.20;;
32196;SDS011;18697;42.770;23.400;2024-02-26T11:26:58;11.35;;;5.80;;
32196;SDS011;18697;42.770;23.400;2024-02-26T11:29:28;9.43;;;6.15;;
32196;SDS011;18697;42.770;23.400;2024-02-26T11:32:09;7.22;;;4.80;;
32196;SDS011;18697;42.770;23.400;2024-02-26T11:34:36;7.70;;;5.10;;
32196;SDS011;18697;42.770;23.400;2024-02-26T11:39:37;7.28;;;5.00;;
32196;SDS011;18697;42.770;23.400;2024-02-26T11:42:05;9.23;;;5.28;;
32196;SDS011;18697;42.770;23.400;2024-02-26T11:44:32;10.50;;;7.97;;
32196;SDS011;18697;42.770;23.400;2024-02-26T11:46:57;6.80;;;5.30;;
32196;SDS011;18697;42.770;23.400;2024-02-26T11:51:52;11.50;;;6.65;;
32196;SDS011;18697;42.770;23.400;2024-02-26T11:57:30;8.73;;;5.15;;
32196;SDS011;18697;42.770;23.400;2024-02-26T12:05:16;8.35;;;4.55;;
32196;SDS011;18697;42.770;23.400;2024-02-26T12:08:02;10.20;;;7.88;;
32196;SDS011;18697;42.770;23.400;2024-02-26T12:10:31;6.20;;;5.00;;
32196;SDS011;18697;42.770;23.400;2024-02-26T12:13:08;6.22;;;4.38;;
32196;SDS011;18697;42.770;23.400;2024-02-26T12:15:38;7.82;;;5.38;;
32196;SDS011;18697;42.770;23.400;2024-02-26T12:18:05;10.65;;;6.10;;
32196;SDS011;18697;42.770;23.400;2024-02-26T12:20:32;6.55;;;5.10;;
32196;SDS011;18697;42.770;23.400;2024-02-26T12:22:57;6.88;;;4.30;;
32196;SDS011;18697;42.770;23.400;2024-02-26T12:25:24;6.53;;;4.30;;
32196;SDS011;18697;42.770;23.400;2024-02-26T12:27:51;6.80;;;4.47;;
32196;SDS011;18697;42.770;23.400;2024-02-26T12:30:17;7.93;;;5.13;;
32196;SDS011;18697;42.770;23.400;2024-02-26T12:32:43;8.13;;;5.22;;
32196;SDS011;18697;42.770;23.400;2024-02-26T12:35:08;7.78;;;4.75;;
32196;SDS011;18697;42.770;23.400;2024-02-26T12:37:34;6.32;;;4.30;;
32196;SDS011;18697;42.770;23.400;2024-02-26T12:40:02;6.68;;;5.00;;
32196;SDS011;18697;42.770;23.400;2024-02-26T12:42:30;7.97;;;5.32;;
32196;SDS011;18697;42.770;23.400;2024-02-26T12:44:58;16.38;;;8.05;;
32196;SDS011;18697;42.770;23.400;2024-02-26T12:47:23;11.45;;;6.15;;
32196;SDS011;18697;42.770;23.400;2024-02-26T12:49:49;11.07;;;6.25;;
32196;SDS011;18697;42.770;23.400;2024-02-26T12:52:14;10.55;;;5.35;;
32196;SDS011;18697;42.770;23.400;2024-02-26T12:54:42;12.85;;;5.63;;
32196;SDS011;18697;42.770;23.400;2024-02-26T12:57:08;5.68;;;4.93;;
32196;SDS011;18697;42.770;23.400;2024-02-26T12:59:34;4.78;;;3.85;;
32196;SDS011;18697;42.770;23.400;2024-02-26T13:02:01;6.65;;;4.10;;
32196;SDS011;18697;42.770;23.400;2024-02-26T13:04:28;10.13;;;4.90;;
32196;SDS011;18697;42.770;23.400;2024-02-26T13:06:55;6.78;;;4.40;;
32196;SDS011;18697;42.770;23.400;2024-02-26T13:09:25;9.07;;;4.38;;
32196;SDS011;18697;42.770;23.400;2024-02-26T13:11:55;6.85;;;3.83;;
32196;SDS011;18697;42.770;23.400;2024-02-26T13:14:20;10.07;;;4.03;;
32196;SDS011;18697;42.770;23.400;2024-02-26T13:16:55;4.15;;;3.53;;
32196;SDS011;18697;42.770;23.400;2024-02-26T13:19:21;6.45;;;3.20;;
32196;SDS011;18697;42.770;23.400;2024-02-26T13:21:47;10.05;;;5.97;;
32196;SDS011;18697;42.770;23.400;2024-02-26T13:24:13;6.82;;;4.22;;
32196;SDS011;18697;42.770;23.400;2024-02-26T13:26:38;7.55;;;4.30;;
32196;SDS011;18697;42.770;23.400;2024-02-26T13:29:04;6.68;;;4.22;;
32196;SDS011;18697;42.770;23.400;2024-02-26T13:31:30;5.82;;;4.43;;
32196;SDS011;18697;42.770;23.400;2024-02-26T13:33:55;7.95;;;5.35;;
32196;SDS011;18697;42.770;23.400;2024-02-26T13:36:21;9.77;;;4.43;;
32196;SDS011;18697;42.770;23.400;2024-02-26T13:38:54;11.15;;;3.75;;
32196;SDS011;18697;42.770;23.400;2024-02-26T13:41:23;6.30;;;3.20;;
32196;SDS011;18697;42.770;23.400;2024-02-26T13:43:48;5.20;;;3.50;;
32196;SDS011;18697;42.770;23.400;2024-02-26T13:46:15;8.20;;;4.13;;
32196;SDS011;18697;42.770;23.400;2024-02-26T13:48:42;7.13;;;4.18;;
32196;SDS011;18697;42.770;23.400;2024-02-26T13:51:07;8.68;;;4.20;;
32196;SDS011;18697;42.770;23.400;2024-02-26T13:53:32;7.20;;;3.13;;
32196;SDS011;18697;42.770;23.400;2024-02-26T13:55:58;8.68;;;4.90;;
32196;SDS011;18697;42.770;23.400;2024-02-26T13:58:26;5.60;;;4.28;;
32196;SDS011;18697;42.770;23.400;2024-02-26T14:00:55;16.50;;;6.75;;
32196;SDS011;18697;42.770;23.400;2024-02-26T14:03:21;15.82;;;6.32;;
32196;SDS011;18697;42.770;23.400;2024-02-26T14:05:46;6.18;;;4.30;;
32196;SDS011;18697;42.770;23.400;2024-02-26T14:08:12;18.83;;;4.35;;
32196;SDS011;18697;42.770;23.400;2024-02-26T14:10:37;8.32;;;5.00;;
32196;SDS011;18697;42.770;23.400;2024-02-26T14:13:03;13.60;;;5.97;;
32196;SDS011;18697;42.770;23.400;2024-02-26T14:15:29;7.75;;;4.20;;
32196;SDS011;18697;42.770;23.400;2024-02-26T14:17:54;10.18;;;4.90;;
32196;SDS011;18697;42.770;23.400;2024-02-26T14:20:21;10.82;;;5.50;;
32196;SDS011;18697;42.770;23.400;2024-02-26T14:22:48;10.25;;;5.47;;
32196;SDS011;18697;42.770;23.400;2024-02-26T14:25:14;10.48;;;5.13;;
32196;SDS011;18697;42.770;23.400;2024-02-26T14:27:39;9.77;;;4.63;;
32196;SDS011;18697;42.770;23.400;2024-02-26T14:30:05;11.32;;;5.65;;